Aurora, New York
Current Conditions -  °F | °C
As of 3:21 AM on Thursday 27 Nov 2014 (Local Time) from KPEO Reporting Station
Overcast Overcast  
Wind Chill: 24°   Ceiling: 1200
Heat Index: 29°   Visibility: 9mi
Dew Point: 26°   Wind: 5mph
Humidity: 89%   Direction: 330°NNW
Pressure: 29.99"   Gusts: NA
Location:  42.75°N, 76.7°W
Report Text: KPEO 270821Z AUTO 33004KT 9SM OVC012 M02/M03 A2999 RMK AO2 SNE18 P0000 T10171033
Loading
Personal Weather Stations






























Interactive Weather Map New forecast layout! Learn more

10-Day Weather Forecast

Advertisements
Track Severe Weather on mobile